Time;durP1;ratioP1;P1;durP2;ratioP2;P2;SDS_P1;SDS_P2;PMS_P1;PMS_P2;Temp;Humidity;BMP_temperature;BMP_pressure;BME280_temperature;BME280_humidity;BME280_pressure;Samples;Min_cycle;Max_cycle;Signal;HPM_P1;HPM_P2
2023/03/28 00:01:41;;;;;;;14.75;1.77;;;;;;;;;;5044400;28;20095;-81
2023/03/28 00:04:10;;;;;;;9.23;2.00;;;;;;;;;;5054061;28;20060;-81
2023/03/28 00:06:37;;;;;;;11.73;1.95;;;;;;;;;;5053086;28;20055;-81
2023/03/28 00:09:04;;;;;;;10.15;1.85;;;;;;;;;;5063693;28;20079;-81
2023/03/28 00:11:30;;;;;;;12.50;1.95;;;;;;;;;;5060476;28;20524;-81
2023/03/28 00:14:02;;;;;;;12.45;1.92;;;;;;;;;;5053180;28;20040;-81
2023/03/28 00:16:32;;;;;;;7.07;1.55;;;;;;;;;;5052172;28;20049;-81
2023/03/28 00:18:59;;;;;;;13.65;2.05;;;;;;;;;;5053219;28;20099;-81
2023/03/28 00:21:28;;;;;;;7.63;1.67;;;;;;;;;;5053343;28;20048;-81
2023/03/28 00:23:55;;;;;;;13.13;1.45;;;;;;;;;;5053051;28;20052;-81
2023/03/28 00:26:23;;;;;;;10.65;1.70;;;;;;;;;;5052341;28;20489;-81
2023/03/28 00:28:50;;;;;;;10.85;1.77;;;;;;;;;;5053912;28;20498;-81
2023/03/28 00:31:17;;;;;;;14.02;1.77;;;;;;;;;;5069411;28;20101;-82
2023/03/28 00:33:46;;;;;;;10.73;1.38;;;;;;;;;;5052454;28;20546;-81
2023/03/28 00:36:13;;;;;;;11.45;1.90;;;;;;;;;;5052663;28;20110;-81
2023/03/28 00:38:40;;;;;;;13.90;1.35;;;;;;;;;;5052321;28;20123;-81
2023/03/28 00:41:08;;;;;;;15.55;2.33;;;;;;;;;;5053873;28;20076;-81
2023/03/28 00:43:53;;;;;;;10.15;1.52;;;;;;;;;;5035249;28;20041;-81
2023/03/28 00:46:25;;;;;;;8.73;1.63;;;;;;;;;;5052420;28;20045;-81
2023/03/28 00:48:52;;;;;;;11.35;1.35;;;;;;;;;;5052531;28;20076;-81
2023/03/28 00:51:19;;;;;;;10.82;1.58;;;;;;;;;;5036057;28;20039;-81
2023/03/28 00:53:46;;;;;;;12.05;1.60;;;;;;;;;;5052200;28;20049;-81
2023/03/28 00:56:14;;;;;;;9.93;1.85;;;;;;;;;;5052232;28;20107;-81
2023/03/28 00:58:42;;;;;;;7.40;1.38;;;;;;;;;;5051506;28;20040;-81
2023/03/28 01:01:10;;;;;;;14.05;1.75;;;;;;;;;;5052428;28;20107;-81
2023/03/28 01:03:40;;;;;;;5.20;1.20;;;;;;;;;;5051712;28;20048;-81
2023/03/28 01:06:07;;;;;;;10.90;1.83;;;;;;;;;;5016151;28;20076;-81
2023/03/28 01:08:35;;;;;;;8.55;1.13;;;;;;;;;;5044771;28;20123;-81
2023/03/28 01:11:02;;;;;;;10.30;1.73;;;;;;;;;;5051723;28;20112;-81
2023/03/28 01:13:30;;;;;;;7.43;1.20;;;;;;;;;;5051502;28;20052;-81
2023/03/28 01:15:58;;;;;;;5.18;1.40;;;;;;;;;;5052131;28;20091;-81
2023/03/28 01:18:24;;;;;;;10.40;1.60;;;;;;;;;;5052149;28;20052;-81
2023/03/28 01:21:06;;;;;;;12.02;1.30;;;;;;;;;;5051325;28;20056;-81
2023/03/28 01:23:51;;;;;;;10.65;1.75;;;;;;;;;;5039409;28;20040;-81
2023/03/28 01:26:26;;;;;;;5.68;1.35;;;;;;;;;;5051371;28;20379;-81
2023/03/28 01:29:06;;;;;;;12.77;1.70;;;;;;;;;;5051442;28;20090;-81
2023/03/28 01:31:49;;;;;;;10.57;1.60;;;;;;;;;;5050948;28;20124;-81
2023/03/28 01:34:41;;;;;;;12.10;2.05;;;;;;;;;;5051961;28;20473;-81
2023/03/28 01:37:22;;;;;;;11.10;1.23;;;;;;;;;;5076995;28;20049;-81
2023/03/28 01:40:06;;;;;;;10.32;1.35;;;;;;;;;;5050863;28;20049;-81
2023/03/28 01:42:51;;;;;;;7.80;1.50;;;;;;;;;;5050855;28;20041;-81
2023/03/28 01:45:36;;;;;;;12.63;1.60;;;;;;;;;;5052537;28;20371;-81
2023/03/28 01:48:05;;;;;;;7.30;1.30;;;;;;;;;;5051246;28;20091;-81
2023/03/28 01:50:50;;;;;;;10.07;1.40;;;;;;;;;;5034540;28;20090;-81
2023/03/28 01:53:25;;;;;;;11.38;1.60;;;;;;;;;;5051034;28;20052;-81
2023/03/28 01:56:00;;;;;;;10.52;1.92;;;;;;;;;;5050838;28;20037;-81
2023/03/28 01:58:32;;;;;;;11.10;1.60;;;;;;;;;;5051391;28;20495;-81
2023/03/28 02:01:06;;;;;;;12.82;1.38;;;;;;;;;;5047321;28;20048;-81
2023/03/28 02:03:34;;;;;;;9.77;1.40;;;;;;;;;;5050079;28;20052;-81
2023/03/28 02:06:03;;;;;;;14.93;1.63;;;;;;;;;;5049614;28;20083;-81
2023/03/28 02:08:31;;;;;;;8.93;1.77;;;;;;;;;;5046039;28;20122;-81
2023/03/28 02:10:58;;;;;;;9.43;1.40;;;;;;;;;;5050559;28;20037;-81
2023/03/28 02:13:27;;;;;;;8.23;1.63;;;;;;;;;;5050847;28;20600;-81
2023/03/28 02:15:56;;;;;;;8.60;1.40;;;;;;;;;;5050219;28;20041;-81
2023/03/28 02:18:28;;;;;;;11.32;1.45;;;;;;;;;;5052185;28;20572;-81
2023/03/28 02:21:00;;;;;;;11.05;1.52;;;;;;;;;;5050241;28;20052;-81
2023/03/28 02:23:32;;;;;;;9.35;1.30;;;;;;;;;;5050625;28;20059;-81
2023/03/28 02:25:58;;;;;;;9.02;1.38;;;;;;;;;;5050335;28;20051;-81
2023/03/28 02:28:25;;;;;;;6.95;1.45;;;;;;;;;;5051081;28;20503;-81
2023/03/28 02:30:52;;;;;;;10.27;1.77;;;;;;;;;;5050400;28;20040;-81
2023/03/28 02:33:33;;;;;;;8.60;1.50;;;;;;;;;;5050855;28;20519;-81
2023/03/28 02:35:59;;;;;;;10.07;1.50;;;;;;;;;;5050459;28;20037;-81
2023/03/28 02:38:25;;;;;;;15.52;2.15;;;;;;;;;;5052190;28;20036;-81
2023/03/28 02:40:59;;;;;;;11.15;1.40;;;;;;;;;;5054668;28;20508;-81
2023/03/28 02:43:28;;;;;;;8.75;1.67;;;;;;;;;;5054507;28;20121;-81
2023/03/28 02:46:00;;;;;;;13.05;1.85;;;;;;;;;;5054360;28;20559;-81
2023/03/28 02:48:32;;;;;;;13.93;1.63;;;;;;;;;;5055978;28;20112;-81
2023/03/28 02:51:02;;;;;;;10.95;1.80;;;;;;;;;;5053945;28;20037;-81
2023/03/28 02:53:38;;;;;;;8.63;1.70;;;;;;;;;;5054657;28;20049;-81
2023/03/28 02:56:07;;;;;;;9.38;1.30;;;;;;;;;;5054358;28;20379;-81
2023/03/28 02:58:39;;;;;;;7.70;1.60;;;;;;;;;;5054443;28;20048;-81
2023/03/28 03:01:05;;;;;;;8.88;1.77;;;;;;;;;;5030338;28;20052;-81
2023/03/28 03:03:35;;;;;;;15.27;1.80;;;;;;;;;;5055324;28;20037;-81
2023/03/28 03:06:02;;;;;;;12.23;1.45;;;;;;;;;;5053770;28;20037;-81
2023/03/28 03:08:29;;;;;;;9.45;1.38;;;;;;;;;;5054326;28;20076;-81
2023/03/28 03:10:55;;;;;;;7.13;1.52;;;;;;;;;;5053748;28;20037;-81
2023/03/28 03:13:22;;;;;;;9.07;1.52;;;;;;;;;;5054475;28;20536;-81
2023/03/28 03:15:48;;;;;;;10.57;1.23;;;;;;;;;;5053682;28;20044;-81
2023/03/28 03:18:15;;;;;;;13.45;1.67;;;;;;;;;;5037341;28;20047;-81
2023/03/28 03:20:44;;;;;;;11.50;1.52;;;;;;;;;;5038010;28;20081;-81
2023/03/28 03:23:11;;;;;;;13.90;2.00;;;;;;;;;;5053746;28;20052;-81
2023/03/28 03:25:37;;;;;;;9.15;1.50;;;;;;;;;;5055348;28;20076;-81
2023/03/28 03:28:03;;;;;;;6.32;1.48;;;;;;;;;;5053461;28;20035;-81
2023/03/28 03:30:30;;;;;;;7.63;1.40;;;;;;;;;;5055227;28;20051;-81
2023/03/28 03:32:56;;;;;;;10.27;1.38;;;;;;;;;;5053188;28;20102;-81
2023/03/28 03:35:22;;;;;;;8.02;1.17;;;;;;;;;;5037808;28;20033;-81
2023/03/28 03:37:48;;;;;;;8.63;1.40;;;;;;;;;;5053686;28;20501;-81
2023/03/28 03:40:16;;;;;;;10.75;1.70;;;;;;;;;;5054090;28;20048;-81
2023/03/28 03:42:42;;;;;;;9.27;1.95;;;;;;;;;;5053501;28;20103;-81
2023/03/28 03:45:08;;;;;;;11.50;1.67;;;;;;;;;;5053206;28;20072;-81
2023/03/28 03:47:35;;;;;;;7.57;1.40;;;;;;;;;;5053896;28;20045;-81
2023/03/28 03:50:01;;;;;;;13.38;2.10;;;;;;;;;;5035660;28;20048;-81
2023/03/28 03:52:27;;;;;;;10.45;1.65;;;;;;;;;;5054842;28;20079;-81
2023/03/28 03:54:53;;;;;;;7.32;1.65;;;;;;;;;;5053133;28;20592;-81
2023/03/28 03:57:20;;;;;;;13.00;1.55;;;;;;;;;;5054778;28;20476;-81
2023/03/28 03:59:46;;;;;;;10.50;1.77;;;;;;;;;;5053163;28;20048;-81
2023/03/28 04:02:12;;;;;;;10.85;1.70;;;;;;;;;;5048723;28;20080;-81
2023/03/28 04:04:39;;;;;;;11.95;2.90;;;;;;;;;;5035863;28;20052;-81
2023/03/28 04:07:05;;;;;;;9.88;1.30;;;;;;;;;;5052108;28;20041;-81
2023/03/28 04:09:31;;;;;;;12.60;1.52;;;;;;;;;;5061003;28;20037;-81
2023/03/28 04:11:58;;;;;;;10.82;1.80;;;;;;;;;;5052551;28;20048;-81
2023/03/28 04:14:24;;;;;;;9.98;1.88;;;;;;;;;;5052817;28;20041;-81
2023/03/28 04:16:50;;;;;;;8.25;1.67;;;;;;;;;;5052959;28;20049;-81
2023/03/28 04:19:17;;;;;;;10.40;1.50;;;;;;;;;;5086170;28;20045;-81
2023/03/28 04:21:46;;;;;;;9.63;1.75;;;;;;;;;;5052644;28;20056;-81
2023/03/28 04:24:16;;;;;;;8.48;1.42;;;;;;;;;;5052793;28;20063;-80
2023/03/28 04:26:48;;;;;;;11.80;1.85;;;;;;;;;;5052892;28;20041;-81
2023/03/28 04:29:15;;;;;;;9.23;1.27;;;;;;;;;;5052658;28;20559;-81
2023/03/28 04:31:48;;;;;;;10.13;1.55;;;;;;;;;;5052899;28;20087;-81
2023/03/28 04:34:15;;;;;;;11.90;2.22;;;;;;;;;;5052452;28;20052;-81
2023/03/28 04:36:42;;;;;;;13.32;1.88;;;;;;;;;;5052571;28;20086;-81
2023/03/28 04:39:08;;;;;;;13.57;1.95;;;;;;;;;;5052282;28;20143;-81
2023/03/28 04:41:34;;;;;;;11.15;1.90;;;;;;;;;;5053400;28;20041;-81
2023/03/28 04:44:01;;;;;;;9.00;1.55;;;;;;;;;;5052394;28;20036;-81
2023/03/28 04:46:30;;;;;;;10.40;2.20;;;;;;;;;;5052481;28;20037;-81
2023/03/28 04:48:56;;;;;;;8.43;1.60;;;;;;;;;;5051800;28;20037;-81
2023/03/28 04:51:23;;;;;;;10.70;1.58;;;;;;;;;;5052450;28;20051;-81
2023/03/28 04:53:49;;;;;;;9.40;1.23;;;;;;;;;;5053509;28;20097;-81
2023/03/28 04:56:16;;;;;;;8.55;1.77;;;;;;;;;;5053322;28;20043;-81
2023/03/28 04:58:42;;;;;;;5.25;1.05;;;;;;;;;;5052295;28;20037;-81
2023/03/28 05:01:09;;;;;;;6.28;1.73;;;;;;;;;;5043790;28;20092;-81
2023/03/28 05:03:36;;;;;;;11.60;1.50;;;;;;;;;;5051456;28;20051;-81
2023/03/28 05:06:02;;;;;;;7.60;1.40;;;;;;;;;;5052085;28;20041;-81
2023/03/28 05:08:28;;;;;;;11.15;1.40;;;;;;;;;;5053286;28;20044;-82
2023/03/28 05:10:54;;;;;;;9.73;1.30;;;;;;;;;;5051913;28;20080;-80
2023/03/28 05:13:21;;;;;;;9.20;1.80;;;;;;;;;;5051520;28;20056;-81
2023/03/28 05:15:47;;;;;;;6.97;1.45;;;;;;;;;;5051686;28;20056;-81
2023/03/28 05:18:14;;;;;;;9.20;1.38;;;;;;;;;;5051305;28;20044;-81
2023/03/28 05:20:40;;;;;;;8.88;1.58;;;;;;;;;;5052943;28;20041;-81
2023/03/28 05:23:06;;;;;;;9.63;1.52;;;;;;;;;;5051141;28;20501;-81
2023/03/28 05:25:32;;;;;;;8.15;1.60;;;;;;;;;;5051870;28;20127;-81
2023/03/28 05:27:59;;;;;;;9.27;1.60;;;;;;;;;;5051928;28;20469;-81
2023/03/28 05:30:25;;;;;;;11.27;1.90;;;;;;;;;;5051413;28;20044;-81
2023/03/28 05:32:51;;;;;;;12.10;1.65;;;;;;;;;;5068200;28;20045;-81
2023/03/28 05:35:17;;;;;;;9.73;1.60;;;;;;;;;;5067497;28;20151;-81
2023/03/28 05:37:44;;;;;;;9.75;1.60;;;;;;;;;;5051585;28;20132;-81
2023/03/28 05:40:11;;;;;;;9.68;2.08;;;;;;;;;;5050826;28;20037;-82
2023/03/28 05:42:37;;;;;;;11.40;1.77;;;;;;;;;;5051336;28;20045;-82
2023/03/28 05:45:05;;;;;;;6.88;1.60;;;;;;;;;;5051023;28;20037;-82
2023/03/28 05:47:31;;;;;;;8.50;1.50;;;;;;;;;;5051434;28;20044;-81
2023/03/28 05:49:57;;;;;;;9.02;1.73;;;;;;;;;;5052251;28;20047;-82
2023/03/28 05:52:23;;;;;;;7.90;1.63;;;;;;;;;;5050755;28;20056;-81
2023/03/28 05:54:49;;;;;;;7.80;1.80;;;;;;;;;;5051049;28;20048;-82
2023/03/28 05:57:15;;;;;;;7.35;1.50;;;;;;;;;;5067632;28;20056;-82
2023/03/28 05:59:42;;;;;;;14.52;2.00;;;;;;;;;;5051476;28;20041;-82
2023/03/28 06:02:15;;;;;;;7.13;1.40;;;;;;;;;;5022976;28;20489;-82
2023/03/28 06:04:41;;;;;;;7.40;1.40;;;;;;;;;;5067617;28;20047;-83
2023/03/28 06:07:08;;;;;;;9.10;1.20;;;;;;;;;;5050818;28;20486;-82
2023/03/28 06:09:34;;;;;;;9.00;1.60;;;;;;;;;;5052379;28;20033;-82
2023/03/28 06:12:02;;;;;;;9.25;1.67;;;;;;;;;;5050829;28;20048;-82
2023/03/28 06:14:28;;;;;;;9.18;1.60;;;;;;;;;;5050297;28;20044;-82
2023/03/28 06:16:54;;;;;;;9.05;1.80;;;;;;;;;;5050975;28;20051;-82
2023/03/28 06:19:20;;;;;;;6.00;1.35;;;;;;;;;;5033657;28;20128;-82
2023/03/28 06:21:46;;;;;;;13.40;1.75;;;;;;;;;;5050531;28;20417;-82
2023/03/28 06:24:14;;;;;;;10.38;1.65;;;;;;;;;;5050501;28;20098;-82
2023/03/28 06:26:40;;;;;;;7.65;1.58;;;;;;;;;;5050661;28;20049;-82
2023/03/28 06:29:06;;;;;;;7.60;1.50;;;;;;;;;;5051100;28;20151;-82
2023/03/28 06:31:32;;;;;;;9.57;1.70;;;;;;;;;;5052685;28;20091;-81
2023/03/28 06:33:58;;;;;;;11.15;1.63;;;;;;;;;;5050916;28;20099;-82
2023/03/28 06:36:24;;;;;;;17.88;4.85;;;;;;;;;;5051323;28;20111;-82
2023/03/28 06:38:52;;;;;;;23.40;7.05;;;;;;;;;;5052201;28;20036;-82
2023/03/28 06:41:18;;;;;;;31.60;11.57;;;;;;;;;;5033739;28;20075;-82
2023/03/28 06:43:45;;;;;;;39.45;14.05;;;;;;;;;;5033828;28;20045;-82
2023/03/28 06:46:12;;;;;;;31.55;10.50;;;;;;;;;;5051415;28;20045;-82
2023/03/28 06:48:38;;;;;;;25.33;8.25;;;;;;;;;;5050525;28;20150;-82
2023/03/28 06:51:05;;;;;;;24.70;8.43;;;;;;;;;;5033911;28;20114;-82
2023/03/28 06:53:31;;;;;;;21.58;7.95;;;;;;;;;;5050430;28;20410;-82
2023/03/28 06:55:58;;;;;;;26.67;10.07;;;;;;;;;;5017456;28;20047;-83
2023/03/28 06:58:24;;;;;;;28.02;11.18;;;;;;;;;;5051523;28;20516;-83
2023/03/28 07:00:51;;;;;;;31.83;11.10;;;;;;;;;;5047227;28;20045;-83
2023/03/28 07:03:17;;;;;;;29.25;10.80;;;;;;;;;;5049911;28;20071;-83
2023/03/28 07:05:43;;;;;;;26.95;10.15;;;;;;;;;;5050171;28;20047;-83
2023/03/28 07:08:11;;;;;;;24.27;9.13;;;;;;;;;;5034414;28;20064;-83
2023/03/28 07:10:37;;;;;;;26.50;11.25;;;;;;;;;;5050104;28;20047;-83
2023/03/28 07:13:04;;;;;;;30.42;11.57;;;;;;;;;;5050485;28;20496;-84
2023/03/28 07:15:30;;;;;;;30.10;12.70;;;;;;;;;;5033523;28;20044;-84
2023/03/28 07:17:56;;;;;;;31.88;13.55;;;;;;;;;;5050592;28;20052;-83
2023/03/28 07:20:22;;;;;;;36.58;14.55;;;;;;;;;;5049987;28;20053;-84
2023/03/28 07:22:49;;;;;;;31.60;13.48;;;;;;;;;;5049993;28;20128;-84
2023/03/28 07:25:15;;;;;;;29.35;12.98;;;;;;;;;;5034789;28;20037;-83
2023/03/28 07:27:41;;;;;;;28.17;12.40;;;;;;;;;;5054489;28;20072;-84
2023/03/28 07:30:08;;;;;;;29.77;11.13;;;;;;;;;;5054040;28;20048;-83
2023/03/28 07:32:35;;;;;;;23.20;10.52;;;;;;;;;;5053992;28;20557;-84
2023/03/28 07:35:01;;;;;;;20.48;9.13;;;;;;;;;;5054325;28;20056;-84
2023/03/28 07:37:27;;;;;;;16.77;7.72;;;;;;;;;;5036896;28;20040;-84
2023/03/28 07:39:55;;;;;;;17.98;7.80;;;;;;;;;;5054481;28;20049;-84
2023/03/28 07:42:21;;;;;;;16.05;6.97;;;;;;;;;;5053604;28;20045;-84
2023/03/28 07:44:47;;;;;;;13.13;6.03;;;;;;;;;;5054175;28;20044;-84
2023/03/28 07:47:13;;;;;;;14.43;5.63;;;;;;;;;;5053668;28;20049;-84
2023/03/28 07:49:39;;;;;;;14.90;4.75;;;;;;;;;;5037261;28;20072;-84
2023/03/28 07:52:06;;;;;;;11.50;4.38;;;;;;;;;;5053523;28;20045;-84
2023/03/28 07:54:33;;;;;;;12.73;4.97;;;;;;;;;;5053579;28;20048;-84
2023/03/28 07:56:59;;;;;;;15.27;6.10;;;;;;;;;;5033911;28;20049;-84
2023/03/28 07:59:26;;;;;;;15.40;5.80;;;;;;;;;;5052563;28;20037;-83
2023/03/28 08:01:52;;;;;;;12.55;5.78;;;;;;;;;;5051120;28;20485;-84
2023/03/28 08:04:18;;;;;;;9.73;3.95;;;;;;;;;;5053227;28;20052;-83
2023/03/28 08:06:44;;;;;;;13.13;5.20;;;;;;;;;;5052938;28;20051;-83
2023/03/28 08:09:11;;;;;;;14.52;5.95;;;;;;;;;;5053456;28;20131;-83
2023/03/28 08:11:38;;;;;;;15.93;5.35;;;;;;;;;;5054111;28;20072;-83
2023/03/28 08:14:05;;;;;;;15.27;5.50;;;;;;;;;;5053097;28;20045;-84
2023/03/28 08:16:32;;;;;;;17.05;5.68;;;;;;;;;;5052865;28;20037;-84
2023/03/28 08:18:59;;;;;;;14.73;5.40;;;;;;;;;;5036642;28;20033;-84
2023/03/28 08:21:26;;;;;;;13.77;5.32;;;;;;;;;;5052729;28;20045;-83
2023/03/28 08:23:53;;;;;;;12.82;4.70;;;;;;;;;;5053156;28;20071;-84
2023/03/28 08:26:19;;;;;;;8.27;2.80;;;;;;;;;;5053408;28;20486;-84
2023/03/28 08:28:45;;;;;;;7.55;2.60;;;;;;;;;;5053215;28;20033;-84
2023/03/28 08:31:13;;;;;;;11.50;3.40;;;;;;;;;;5054469;28;20076;-84
2023/03/28 08:33:39;;;;;;;9.95;3.78;;;;;;;;;;5053444;28;20033;-84
2023/03/28 08:36:06;;;;;;;12.80;4.22;;;;;;;;;;5054171;28;20563;-84
2023/03/28 08:38:32;;;;;;;10.45;3.88;;;;;;;;;;5052703;28;20499;-84
2023/03/28 08:41:18;;;;;;;8.68;2.72;;;;;;;;;;5048100;28;20045;-84
2023/03/28 08:43:44;;;;;;;;;;;;;;;;;;5046311;28;20522;-83
2023/03/28 08:46:12;;;;;;;6.93;2.40;;;;;;;;;;5038889;28;19931;-83
2023/03/28 08:48:46;;;;;;;6.75;1.95;;;;;;;;;;5052723;28;20091;-84
2023/03/28 08:51:21;;;;;;;6.43;1.77;;;;;;;;;;5052550;28;20032;-84
2023/03/28 08:54:09;;;;;;;6.45;1.63;;;;;;;;;;5052308;28;20079;-84
2023/03/28 08:56:40;;;;;;;6.53;1.40;;;;;;;;;;5053771;28;20041;-84
2023/03/28 08:59:16;;;;;;;5.22;1.92;;;;;;;;;;5052589;28;20036;-84
2023/03/28 09:01:43;;;;;;;6.28;1.60;;;;;;;;;;5049895;28;20033;-84
2023/03/28 09:04:25;;;;;;;7.22;1.63;;;;;;;;;;5069100;28;20048;-84
2023/03/28 09:06:53;;;;;;;6.00;1.55;;;;;;;;;;5052496;28;20049;-84
2023/03/28 09:09:27;;;;;;;4.80;1.58;;;;;;;;;;5052549;28;20040;-84
2023/03/28 09:12:08;;;;;;;6.28;1.60;;;;;;;;;;5035767;28;20048;-84
2023/03/28 09:14:41;;;;;;;3.50;1.23;;;;;;;;;;5052169;28;20045;-84
2023/03/28 09:17:12;;;;;;;8.38;1.70;;;;;;;;;;5052669;28;20514;-84
2023/03/28 09:19:44;;;;;;;4.88;1.35;;;;;;;;;;5052280;28;20571;-84
2023/03/28 09:22:17;;;;;;;4.50;1.27;;;;;;;;;;5052139;28;20469;-84
2023/03/28 09:24:47;;;;;;;6.50;1.10;;;;;;;;;;5052083;28;20041;-84
2023/03/28 09:27:13;;;;;;;5.43;1.13;;;;;;;;;;5052126;28;20041;-84
2023/03/28 09:29:42;;;;;;;5.28;1.35;;;;;;;;;;5051912;28;20405;-84
2023/03/28 09:32:30;;;;;;;6.38;1.33;;;;;;;;;;5035170;28;20041;-84
2023/03/28 09:34:56;;;;;;;7.78;1.50;;;;;;;;;;5034998;28;20090;-84
2023/03/28 09:37:51;;;;;;;7.38;1.73;;;;;;;;;;5051901;28;20037;-84
2023/03/28 09:40:17;;;;;;;6.18;1.60;;;;;;;;;;5064341;28;20091;-84
2023/03/28 09:42:49;;;;;;;5.15;1.40;;;;;;;;;;5051047;28;20041;-84
2023/03/28 09:45:31;;;;;;;3.55;1.10;;;;;;;;;;5051436;28;20082;-83
2023/03/28 09:47:57;;;;;;;6.57;1.50;;;;;;;;;;5050353;28;20090;-83
2023/03/28 09:50:23;;;;;;;3.40;1.23;;;;;;;;;;5034820;28;20112;-83
2023/03/28 09:52:50;;;;;;;9.45;1.75;;;;;;;;;;5050817;28;20111;-84
2023/03/28 09:55:18;;;;;;;7.05;1.42;;;;;;;;;;5051289;28;20079;-84
2023/03/28 09:58:03;;;;;;;6.55;1.20;;;;;;;;;;5050833;28;20048;-84
2023/03/28 10:00:29;;;;;;;6.30;1.60;;;;;;;;;;5032441;28;20041;-83
2023/03/28 10:02:55;;;;;;;5.65;1.48;;;;;;;;;;5047143;28;20042;-84
2023/03/28 10:05:30;;;;;;;7.72;1.60;;;;;;;;;;5051737;28;20047;-83
2023/03/28 10:07:58;;;;;;;6.32;1.70;;;;;;;;;;5050560;28;20076;-83
2023/03/28 10:10:24;;;;;;;7.55;1.50;;;;;;;;;;5051220;28;20120;-83
2023/03/28 10:12:55;;;;;;;5.80;1.55;;;;;;;;;;5070005;28;20049;-83
2023/03/28 10:15:31;;;;;;;6.15;1.92;;;;;;;;;;5050820;28;20045;-84
2023/03/28 10:17:59;;;;;;;6.95;1.98;;;;;;;;;;5037766;28;20103;-83
2023/03/28 10:20:25;;;;;;;7.25;2.03;;;;;;;;;;5051064;28;20128;-83
2023/03/28 10:22:53;;;;;;;5.82;1.92;;;;;;;;;;5050191;28;20056;-83
2023/03/28 10:25:31;;;;;;;8.75;1.98;;;;;;;;;;5067907;28;20052;-83
2023/03/28 10:27:59;;;;;;;5.22;1.80;;;;;;;;;;5050510;28;20041;-84
2023/03/28 10:30:30;;;;;;;6.70;2.05;;;;;;;;;;5051133;28;20140;-84
2023/03/28 10:33:08;;;;;;;8.68;2.53;;;;;;;;;;5050551;28;20056;-84
2023/03/28 10:35:35;;;;;;;5.15;2.20;;;;;;;;;;5051149;28;20049;-83
2023/03/28 10:38:04;;;;;;;7.75;2.72;;;;;;;;;;5050304;28;20048;-84
2023/03/28 10:40:31;;;;;;;8.60;2.25;;;;;;;;;;5050758;28;20060;-83
2023/03/28 10:42:58;;;;;;;5.70;2.25;;;;;;;;;;5049547;28;20108;-83
2023/03/28 10:45:32;;;;;;;6.72;2.70;;;;;;;;;;5050815;28;20037;-83
2023/03/28 10:47:59;;;;;;;6.07;2.63;;;;;;;;;;5050601;28;20037;-83
2023/03/28 10:50:25;;;;;;;6.95;2.30;;;;;;;;;;5034141;28;20033;-83
2023/03/28 10:53:18;;;;;;;6.03;2.30;;;;;;;;;;5050477;28;20550;-83
2023/03/28 10:55:54;;;;;;;8.07;2.55;;;;;;;;;;5049986;28;20178;-83
2023/03/28 10:58:20;;;;;;;4.97;2.35;;;;;;;;;;5050725;28;20049;-83
2023/03/28 11:00:46;;;;;;;5.95;2.53;;;;;;;;;;5052696;28;20056;-83
2023/03/28 11:03:15;;;;;;;8.45;2.90;;;;;;;;;;5055878;28;20041;-83
2023/03/28 11:05:44;;;;;;;5.60;2.60;;;;;;;;;;5055659;28;20162;-83
2023/03/28 11:08:26;;;;;;;6.43;2.53;;;;;;;;;;5038232;28;20572;-83
2023/03/28 11:11:03;;;;;;;7.55;3.13;;;;;;;;;;5054091;28;20037;-83
2023/03/28 11:13:36;;;;;;;6.40;2.85;;;;;;;;;;5054668;28;20066;-83
2023/03/28 11:16:05;;;;;;;5.68;2.83;;;;;;;;;;5053832;28;20045;-83
2023/03/28 11:18:46;;;;;;;8.88;3.30;;;;;;;;;;5054470;28;20049;-83
2023/03/28 11:21:15;;;;;;;7.28;2.97;;;;;;;;;;5054404;28;20037;-83
2023/03/28 11:23:47;;;;;;;7.65;2.83;;;;;;;;;;5054061;28;20132;-83
2023/03/28 11:26:22;;;;;;;7.88;3.03;;;;;;;;;;5054327;28;20080;-84
2023/03/28 11:29:00;;;;;;;7.20;3.00;;;;;;;;;;5037234;28;20037;-83
2023/03/28 11:31:31;;;;;;;6.65;2.65;;;;;;;;;;5054563;28;20037;-83
2023/03/28 11:34:00;;;;;;;6.40;2.83;;;;;;;;;;5053875;28;20040;-83
2023/03/28 11:36:31;;;;;;;7.72;3.40;;;;;;;;;;5054249;28;20051;-83
2023/03/28 11:39:20;;;;;;;8.70;3.10;;;;;;;;;;5036861;28;20041;-83
2023/03/28 11:41:47;;;;;;;7.82;2.90;;;;;;;;;;5053968;28;20033;-83
2023/03/28 11:44:14;;;;;;;5.43;2.67;;;;;;;;;;5053385;28;20075;-83
2023/03/28 11:46:42;;;;;;;9.65;2.97;;;;;;;;;;5053679;28;20045;-83
2023/03/28 11:49:16;;;;;;;5.95;2.75;;;;;;;;;;5053446;28;20574;-83
2023/03/28 11:51:53;;;;;;;7.50;2.80;;;;;;;;;;5037201;28;20493;-83
2023/03/28 11:54:23;;;;;;;9.52;3.38;;;;;;;;;;5037099;28;20037;-83
2023/03/28 11:56:55;;;;;;;6.50;2.63;;;;;;;;;;5053377;28;20041;-83
2023/03/28 11:59:38;;;;;;;5.45;2.80;;;;;;;;;;5069995;28;20040;-83
2023/03/28 12:02:10;;;;;;;8.98;2.70;;;;;;;;;;5049928;28;20045;-83
2023/03/28 12:04:55;;;;;;;7.97;2.80;;;;;;;;;;5054420;28;20036;-82
2023/03/28 12:07:23;;;;;;;6.88;3.10;;;;;;;;;;5036898;28;20124;-82
2023/03/28 12:09:52;;;;;;;9.82;3.08;;;;;;;;;;5053524;28;20048;-83
2023/03/28 12:12:24;;;;;;;8.95;2.90;;;;;;;;;;5052599;28;20041;-83
2023/03/28 12:14:53;;;;;;;7.90;2.70;;;;;;;;;;5053401;28;20506;-83
2023/03/28 12:17:25;;;;;;;9.18;2.72;;;;;;;;;;5053059;28;20127;-83
2023/03/28 12:19:52;;;;;;;6.78;2.50;;;;;;;;;;5052877;28;20049;-83
2023/03/28 12:22:34;;;;;;;7.57;2.97;;;;;;;;;;5052619;28;20053;-83
2023/03/28 12:25:28;;;;;;;10.02;2.85;;;;;;;;;;5052900;28;20414;-83
2023/03/28 12:27:54;;;;;;;9.00;3.15;;;;;;;;;;5085535;28;20132;-83
2023/03/28 12:30:39;;;;;;;8.27;2.97;;;;;;;;;;5052586;28;20049;-83
2023/03/28 12:33:13;;;;;;;7.65;2.80;;;;;;;;;;5052537;28;20052;-83
2023/03/28 12:35:51;;;;;;;8.43;2.88;;;;;;;;;;5036063;28;20174;-83
2023/03/28 12:38:23;;;;;;;7.00;3.05;;;;;;;;;;5052738;28;20401;-83
2023/03/28 12:40:53;;;;;;;7.32;2.90;;;;;;;;;;5052842;28;20520;-83
2023/03/28 12:43:22;;;;;;;7.60;2.92;;;;;;;;;;5052148;28;20049;-82
2023/03/28 12:45:51;;;;;;;5.68;2.75;;;;;;;;;;5053672;28;20033;-83
2023/03/28 12:48:38;;;;;;;4.90;2.53;;;;;;;;;;5035456;28;20193;-83
2023/03/28 12:51:14;;;;;;;9.02;2.70;;;;;;;;;;5068683;28;20116;-83
2023/03/28 12:53:43;;;;;;;9.02;2.85;;;;;;;;;;5054093;28;20441;-83
2023/03/28 12:56:11;;;;;;;6.63;3.00;;;;;;;;;;5053217;28;20041;-83
2023/03/28 12:58:38;;;;;;;6.80;3.00;;;;;;;;;;5052422;28;20440;-83
2023/03/28 13:01:07;;;;;;;6.32;2.92;;;;;;;;;;5035196;28;20094;-83
2023/03/28 13:03:45;;;;;;;8.63;3.20;;;;;;;;;;5052205;28;20045;-82
2023/03/28 13:06:21;;;;;;;9.95;3.35;;;;;;;;;;5051746;28;20071;-82
2023/03/28 13:09:00;;;;;;;9.90;3.35;;;;;;;;;;5053382;28;20440;-83
2023/03/28 13:11:35;;;;;;;7.05;3.30;;;;;;;;;;5053654;28;20128;-83
2023/03/28 13:14:22;;;;;;;6.10;3.38;;;;;;;;;;5051554;28;20059;-83
2023/03/28 13:16:51;;;;;;;8.75;3.63;;;;;;;;;;5081664;28;20041;-83
2023/03/28 13:19:19;;;;;;;10.50;3.22;;;;;;;;;;5052677;28;20033;-83
2023/03/28 13:21:55;;;;;;;9.88;3.40;;;;;;;;;;5052675;28;20064;-82
2023/03/28 13:24:24;;;;;;;10.98;3.33;;;;;;;;;;5052059;28;20045;-83
2023/03/28 13:27:03;;;;;;;7.25;3.25;;;;;;;;;;5052002;28;20536;-83
2023/03/28 13:29:49;;;;;;;9.18;3.13;;;;;;;;;;5051447;28;20045;-82
2023/03/28 13:32:16;;;;;;;7.75;3.05;;;;;;;;;;5051629;28;20124;-82
2023/03/28 13:34:47;;;;;;;8.93;3.67;;;;;;;;;;5051661;28;20110;-83
2023/03/28 13:37:19;;;;;;;5.57;2.65;;;;;;;;;;5051380;28;20041;-82
2023/03/28 13:39:59;;;;;;;6.85;3.00;;;;;;;;;;5052670;28;20063;-82
2023/03/28 13:42:29;;;;;;;10.35;3.15;;;;;;;;;;5051088;28;20071;-82
2023/03/28 13:44:57;;;;;;;9.10;2.58;;;;;;;;;;5051009;28;20049;-82
2023/03/28 13:47:30;;;;;;;7.32;2.90;;;;;;;;;;5051220;28;20033;-82
2023/03/28 13:50:07;;;;;;;6.13;2.80;;;;;;;;;;5051080;28;20041;-82
2023/03/28 13:52:34;;;;;;;6.97;3.17;;;;;;;;;;5051932;28;20481;-82
2023/03/28 13:55:13;;;;;;;9.95;3.55;;;;;;;;;;5051495;28;20461;-82
2023/03/28 13:57:39;;;;;;;6.25;2.97;;;;;;;;;;5051348;28;20041;-82
2023/03/28 14:00:06;;;;;;;6.88;2.80;;;;;;;;;;5051127;28;20494;-82
2023/03/28 14:02:36;;;;;;;5.65;3.25;;;;;;;;;;5038317;28;20029;-82
2023/03/28 14:05:14;;;;;;;8.52;3.28;;;;;;;;;;5051053;28;20045;-82
2023/03/28 14:07:41;;;;;;;6.78;3.30;;;;;;;;;;5071339;28;20490;-82
2023/03/28 14:10:22;;;;;;;6.00;3.00;;;;;;;;;;5052406;28;20435;-82
2023/03/28 14:12:50;;;;;;;8.70;3.03;;;;;;;;;;5051263;28;20047;-82
2023/03/28 14:15:20;;;;;;;5.88;2.60;;;;;;;;;;5051621;28;20127;-82
2023/03/28 14:17:47;;;;;;;6.10;2.33;;;;;;;;;;5051049;28;20478;-82
2023/03/28 14:20:16;;;;;;;6.93;2.90;;;;;;;;;;5051707;28;20115;-82
2023/03/28 14:22:45;;;;;;;10.18;3.00;;;;;;;;;;5051979;28;20075;-82
2023/03/28 14:25:13;;;;;;;7.20;2.60;;;;;;;;;;5050372;28;20041;-82
2023/03/28 14:27:39;;;;;;;6.20;2.60;;;;;;;;;;5051984;28;20041;-82
2023/03/28 14:30:22;;;;;;;6.35;2.28;;;;;;;;;;5050956;28;20125;-82
2023/03/28 14:32:53;;;;;;;8.00;2.42;;;;;;;;;;5050928;28;20119;-82
2023/03/28 14:35:23;;;;;;;5.93;2.35;;;;;;;;;;5033387;28;20055;-82
2023/03/28 14:37:50;;;;;;;5.68;2.50;;;;;;;;;;5050772;28;20047;-82
2023/03/28 14:40:22;;;;;;;9.02;3.13;;;;;;;;;;5050070;28;20044;-82
2023/03/28 14:42:55;;;;;;;7.18;2.85;;;;;;;;;;5050646;28;20044;-82
2023/03/28 14:45:25;;;;;;;7.57;3.20;;;;;;;;;;5033775;28;20438;-82
2023/03/28 14:47:51;;;;;;;9.35;3.30;;;;;;;;;;5034067;28;20041;-82
2023/03/28 14:50:19;;;;;;;6.40;2.78;;;;;;;;;;5050488;28;20478;-82
2023/03/28 14:52:45;;;;;;;6.72;2.85;;;;;;;;;;5050575;28;20049;-82
2023/03/28 14:55:22;;;;;;;6.82;2.88;;;;;;;;;;5050636;28;20094;-82